createdAt,value
2023-05-22T00:05:23.098Z,11.19
2023-05-22T00:10:47.350Z,10.29
2023-05-22T00:16:39.285Z,10.29
2023-05-22T00:22:07.116Z,10.29
2023-05-22T00:27:46.683Z,10.29
2023-05-22T00:33:08.604Z,10.29
2023-05-22T00:40:13.857Z,10.29
2023-05-22T00:43:47.538Z,10.29
2023-05-22T00:49:06.639Z,10.29
2023-05-22T00:55:24.611Z,9.93
2023-05-22T00:59:47.733Z,9.19
2023-05-22T01:04:52.240Z,9.93
2023-05-22T01:10:09.463Z,10.29
2023-05-22T01:15:53.976Z,9.93
2023-05-22T01:21:11.108Z,10.29
2023-05-22T01:26:33.569Z,9.93
2023-05-22T01:32:14.027Z,9.93
2023-05-22T01:37:27.062Z,9.93
2023-05-22T01:43:00.656Z,9.93
2023-05-22T01:54:05.479Z,9.93
2023-05-22T01:58:57.289Z,9.93
2023-05-22T02:04:04.843Z,9.93
2023-05-22T02:09:16.828Z,9.93
2023-05-22T02:14:24.434Z,9.93
2023-05-22T02:19:44.117Z,9.93
2023-05-22T02:24:51.660Z,9.93
2023-05-22T02:30:19.664Z,9.93
2023-05-22T02:36:06.392Z,9.93
2023-05-22T02:41:19.060Z,9.93
2023-05-22T02:46:38.788Z,9.56
2023-05-22T02:51:56.513Z,9.93
2023-05-22T02:57:42.571Z,9.93
2023-05-22T03:02:52.152Z,9.93
2023-05-22T03:08:31.847Z,9.93
2023-05-22T03:13:51.784Z,9.03
2023-05-22T03:19:31.287Z,9.93
2023-05-22T03:25:11.660Z,9.93
2023-05-22T03:30:40.594Z,9.93
2023-05-22T03:35:53.643Z,9.93
2023-05-22T03:41:06.061Z,9.93
2023-05-22T03:46:13.611Z,9.93
2023-05-22T03:51:25.786Z,9.93
2023-05-22T03:56:50.209Z,9.93
2023-05-22T04:02:05.210Z,9.93
2023-05-22T04:07:21.253Z,9.93
2023-05-22T04:13:12.308Z,9.93
2023-05-22T04:19:21.541Z,9.93
2023-05-22T04:24:25.056Z,9.93
2023-05-22T04:30:46.875Z,9.93
2023-05-22T04:35:17.526Z,9.56
2023-05-22T04:40:28.781Z,9.93
2023-05-22T04:46:05.270Z,9.93
2023-05-22T04:51:31.440Z,9.93
2023-05-22T04:56:36.738Z,9.93
2023-05-22T05:01:53.904Z,9.56
2023-05-22T05:07:05.329Z,9.56
2023-05-22T05:13:02.735Z,9.56
2023-05-22T05:18:16.522Z,9.56
2023-05-22T05:23:45.574Z,9.56
2023-05-22T05:28:55.314Z,9.56
2023-05-22T05:34:59.781Z,9.56
2023-05-22T05:39:24.236Z,9.56
2023-05-22T05:44:34.232Z,9.56
2023-05-22T05:49:40.727Z,9.56
2023-05-22T05:54:57.584Z,9.56
2023-05-22T06:00:19.896Z,8.67
2023-05-22T06:05:45.820Z,8.67
2023-05-22T06:11:00.437Z,9.56
2023-05-22T06:16:19.758Z,8.67
2023-05-22T06:21:30.735Z,9.56
2023-05-22T06:26:32.030Z,9.56
2023-05-22T06:31:39.997Z,9.56
2023-05-22T06:36:47.482Z,9.56
2023-05-22T06:41:55.384Z,9.56
2023-05-22T06:47:09.263Z,9.56
2023-05-22T06:52:27.007Z,9.56
2023-05-22T06:58:22.050Z,9.56
2023-05-22T07:03:53.400Z,9.56
2023-05-22T07:09:01.463Z,9.56
2023-05-22T07:14:15.736Z,9.93
2023-05-22T07:19:35.252Z,9.56
2023-05-22T07:24:43.944Z,9.56
2023-05-22T07:29:50.225Z,9.93
2023-05-22T07:34:57.708Z,9.93
2023-05-22T07:40:10.820Z,9.93
2023-05-22T07:45:20.176Z,9.56
2023-05-22T07:50:34.574Z,9.93
2023-05-22T07:55:47.570Z,9.56
2023-05-22T08:00:50.210Z,9.93
2023-05-22T08:06:02.211Z,9.93
2023-05-22T08:11:36.984Z,9.93
2023-05-22T08:16:38.793Z,9.93
2023-05-22T08:21:47.347Z,9.93
2023-05-22T08:26:55.133Z,9.93
2023-05-22T08:32:55.024Z,9.93
2023-05-22T08:37:43.996Z,9.56
2023-05-22T08:42:31.309Z,9.93
2023-05-22T08:47:45.317Z,9.93
2023-05-22T08:52:50.878Z,9.93
2023-05-22T08:58:35.757Z,9.93
2023-05-22T09:04:22.004Z,9.19
2023-05-22T09:09:40.954Z,9.93
2023-05-22T09:15:28.835Z,9.93
2023-05-22T09:20:36.413Z,9.93
2023-05-22T09:25:50.281Z,9.93
2023-05-22T09:31:33.836Z,9.93
2023-05-22T09:36:39.659Z,9.93
2023-05-22T09:42:51.750Z,9.93
2023-05-22T09:47:11.573Z,9.93
2023-05-22T09:53:05.746Z,9.93
2023-05-22T09:58:36.376Z,9.93
2023-05-22T10:04:59.738Z,9.93
2023-05-22T10:09:28.436Z,9.93
2023-05-22T10:15:18.515Z,9.93
2023-05-22T10:19:59.796Z,9.93
2023-05-22T10:25:10.766Z,9.93
2023-05-22T10:30:31.587Z,9.93
2023-05-22T10:35:47.151Z,9.93
2023-05-22T10:41:35.756Z,10.29
2023-05-22T10:47:23.392Z,10.29
2023-05-22T10:53:06.208Z,10.29
2023-05-22T10:58:33.860Z,10.29
2023-05-22T11:03:56.504Z,10.29
2023-05-22T11:09:18.151Z,10.29
2023-05-22T11:14:48.269Z,10.29
2023-05-22T11:19:59.621Z,10.29
2023-05-22T11:25:06.997Z,10.29
2023-05-22T11:30:42.889Z,11.19
2023-05-22T11:36:21.984Z,11.19
2023-05-22T11:41:42.568Z,11.19
2023-05-22T11:47:24.783Z,11.19
2023-05-22T11:52:48.875Z,11.19
2023-05-22T11:57:51.080Z,11.19
2023-05-22T12:03:01.877Z,11.19
2023-05-22T12:08:09.396Z,11.19
2023-05-22T12:18:11.823Z,11.19
2023-05-22T12:18:46.567Z,11.19
2023-05-22T12:24:04.969Z,11.19
2023-05-22T12:29:20.738Z,11.19
2023-05-22T12:35:33.793Z,11.19
2023-05-22T12:40:10.530Z,11.19
2023-05-22T12:45:53.075Z,11.19
2023-05-22T12:51:51.013Z,11.19
2023-05-22T12:57:33.709Z,11.19
2023-05-22T13:02:50.527Z,11.19
2023-05-22T13:08:34.465Z,11.19
2023-05-22T13:14:19.304Z,11.19
2023-05-22T13:20:01.783Z,11.19
2023-05-22T13:25:27.823Z,11.19
2023-05-22T13:37:23.917Z,11.19
2023-05-22T13:42:08.362Z,11.19
2023-05-22T13:47:50.976Z,11.19
2023-05-22T13:59:01.264Z,11.19
2023-05-22T14:04:23.692Z,11.19
2023-05-22T14:10:04.990Z,11.19
2023-05-22T14:15:32.025Z,11.19
2023-05-22T14:21:19.094Z,11.19
2023-05-22T14:32:25.913Z,11.19
2023-05-22T14:38:08.881Z,10.83
2023-05-22T14:43:32.482Z,10.83
2023-05-22T14:49:26.359Z,10.83
2023-05-22T14:54:26.256Z,10.83
2023-05-22T15:05:07.513Z,10.83
2023-05-22T15:24:02.496Z,10.83
2023-05-22T15:30:26.581Z,10.83
2023-05-22T15:42:19.779Z,10.83
2023-05-22T15:47:36.859Z,10.83
2023-05-22T15:53:24.303Z,10.83
2023-05-22T16:03:54.063Z,10.83
2023-05-22T16:11:40.612Z,10.83
2023-05-22T16:21:12.025Z,10.83
2023-05-22T16:26:58.140Z,10.83
2023-05-22T16:32:14.012Z,10.83
2023-05-22T16:51:06.064Z,10.46
2023-05-22T17:13:15.144Z,11.35
2023-05-22T17:18:26.385Z,11.35
2023-05-22T17:33:06.838Z,11.35
2023-05-22T18:14:46.200Z,11.35
2023-05-22T18:22:27.202Z,11.35
2023-05-22T18:47:19.862Z,11.35
2023-05-22T18:53:11.849Z,11.35
2023-05-22T19:15:58.858Z,11.35
2023-05-22T19:40:17.584Z,11.73
2023-05-22T19:49:06.943Z,11.35
2023-05-22T20:02:48.833Z,11.35
2023-05-22T20:09:04.377Z,10.46
2023-05-22T20:18:59.570Z,10.46
2023-05-22T20:24:24.216Z,10.08
2023-05-22T20:30:13.911Z,10.08
2023-05-22T20:35:37.345Z,10.97
2023-05-22T20:40:49.520Z,10.97
2023-05-22T20:51:30.815Z,10.97
2023-05-22T20:57:35.549Z,10.97
2023-05-22T21:07:08.614Z,10.97
2023-05-22T21:11:50.491Z,10.58
2023-05-22T21:12:21.132Z,10.97
2023-05-22T21:17:37.956Z,10.97
2023-05-22T21:23:00.448Z,10.97
2023-05-22T21:28:34.750Z,10.97
2023-05-22T21:34:10.479Z,10.97
2023-05-22T21:39:35.261Z,10.58
2023-05-22T21:44:33.433Z,10.08
2023-05-22T21:49:43.507Z,10.97
2023-05-22T21:54:56.467Z,10.97
2023-05-22T22:00:05.029Z,10.97
2023-05-22T22:11:17.545Z,10.97
2023-05-22T22:17:07.198Z,10.97
2023-05-22T22:22:41.342Z,10.97
2023-05-22T22:28:20.396Z,10.97
2023-05-22T22:34:13.237Z,10.97
2023-05-22T22:38:59.195Z,10.97
2023-05-22T22:44:15.142Z,10.97
2023-05-22T22:54:55.830Z,10.97
2023-05-22T23:00:03.890Z,10.97
2023-05-22T23:05:16.052Z,10.97
2023-05-22T23:10:34.622Z,10.97
2023-05-22T23:15:50.873Z,10.97
2023-05-22T23:21:19.654Z,10.97
2023-05-22T23:28:55.529Z,10.97
2023-05-22T23:32:15.112Z,10.97
2023-05-22T23:38:04.132Z,10.97
2023-05-22T23:43:20.772Z,10.97
2023-05-22T23:51:21.500Z,11.35
2023-05-22T23:54:22.630Z,11.35
